sensor_id;sensor_type;location;lat;lon;timestamp;P1;durP1;ratioP1;P2;durP2;ratioP2
28774;SDS011;15926;51.348;6.596;2023-01-10T00:01:38;10.52;;;3.85;;
28774;SDS011;15926;51.348;6.596;2023-01-10T00:04:04;11.85;;;3.72;;
28774;SDS011;15926;51.348;6.596;2023-01-10T00:06:30;8.57;;;3.67;;
28774;SDS011;15926;51.348;6.596;2023-01-10T00:08:56;8.60;;;3.28;;
28774;SDS011;15926;51.348;6.596;2023-01-10T00:11:22;8.15;;;3.50;;
28774;SDS011;15926;51.348;6.596;2023-01-10T00:14:06;11.02;;;3.40;;
28774;SDS011;15926;51.348;6.596;2023-01-10T00:16:32;5.70;;;3.17;;
28774;SDS011;15926;51.348;6.596;2023-01-10T00:18:58;12.88;;;3.55;;
28774;SDS011;15926;51.348;6.596;2023-01-10T00:21:24;10.90;;;3.80;;
28774;SDS011;15926;51.348;6.596;2023-01-10T00:23:52;9.93;;;2.80;;
28774;SDS011;15926;51.348;6.596;2023-01-10T00:26:18;8.57;;;2.88;;
28774;SDS011;15926;51.348;6.596;2023-01-10T00:28:44;8.52;;;2.42;;
28774;SDS011;15926;51.348;6.596;2023-01-10T00:31:10;10.07;;;3.33;;
28774;SDS011;15926;51.348;6.596;2023-01-10T00:33:37;7.90;;;2.78;;
28774;SDS011;15926;51.348;6.596;2023-01-10T00:36:04;10.57;;;3.60;;
28774;SDS011;15926;51.348;6.596;2023-01-10T00:38:31;8.88;;;2.60;;
28774;SDS011;15926;51.348;6.596;2023-01-10T00:41:00;10.05;;;2.60;;
28774;SDS011;15926;51.348;6.596;2023-01-10T00:43:26;8.57;;;2.47;;
28774;SDS011;15926;51.348;6.596;2023-01-10T00:46:11;10.38;;;2.63;;
28774;SDS011;15926;51.348;6.596;2023-01-10T00:48:37;11.07;;;2.95;;
28774;SDS011;15926;51.348;6.596;2023-01-10T00:51:03;10.80;;;2.58;;
28774;SDS011;15926;51.348;6.596;2023-01-10T00:53:29;11.98;;;2.38;;
28774;SDS011;15926;51.348;6.596;2023-01-10T00:55:56;4.80;;;2.22;;
28774;SDS011;15926;51.348;6.596;2023-01-10T00:58:22;8.90;;;2.60;;
28774;SDS011;15926;51.348;6.596;2023-01-10T01:00:48;9.07;;;2.55;;
28774;SDS011;15926;51.348;6.596;2023-01-10T01:03:14;8.95;;;1.73;;
28774;SDS011;15926;51.348;6.596;2023-01-10T01:05:41;9.55;;;2.60;;
28774;SDS011;15926;51.348;6.596;2023-01-10T01:08:08;10.57;;;2.15;;
28774;SDS011;15926;51.348;6.596;2023-01-10T01:10:34;8.32;;;1.63;;
28774;SDS011;15926;51.348;6.596;2023-01-10T01:13:11;10.25;;;2.38;;
28774;SDS011;15926;51.348;6.596;2023-01-10T01:15:37;6.72;;;1.60;;
28774;SDS011;15926;51.348;6.596;2023-01-10T01:18:03;9.73;;;2.30;;
28774;SDS011;15926;51.348;6.596;2023-01-10T01:20:30;4.78;;;1.83;;
28774;SDS011;15926;51.348;6.596;2023-01-10T01:22:56;8.88;;;2.60;;
28774;SDS011;15926;51.348;6.596;2023-01-10T01:25:22;12.55;;;2.35;;
28774;SDS011;15926;51.348;6.596;2023-01-10T01:27:48;11.60;;;1.92;;
28774;SDS011;15926;51.348;6.596;2023-01-10T01:30:14;4.85;;;1.70;;
28774;SDS011;15926;51.348;6.596;2023-01-10T01:32:40;11.35;;;1.80;;
28774;SDS011;15926;51.348;6.596;2023-01-10T01:35:06;7.22;;;1.65;;
28774;SDS011;15926;51.348;6.596;2023-01-10T01:37:33;12.85;;;1.75;;
28774;SDS011;15926;51.348;6.596;2023-01-10T01:39:59;8.15;;;1.60;;
28774;SDS011;15926;51.348;6.596;2023-01-10T01:42:26;10.80;;;1.23;;
28774;SDS011;15926;51.348;6.596;2023-01-10T01:50:01;6.47;;;1.60;;
28774;SDS011;15926;51.348;6.596;2023-01-10T01:52:28;9.45;;;1.60;;
28774;SDS011;15926;51.348;6.596;2023-01-10T01:54:56;10.43;;;1.75;;
28774;SDS011;15926;51.348;6.596;2023-01-10T01:57:23;4.65;;;1.67;;
28774;SDS011;15926;51.348;6.596;2023-01-10T01:59:51;4.90;;;1.33;;
28774;SDS011;15926;51.348;6.596;2023-01-10T02:02:19;14.98;;;1.98;;
28774;SDS011;15926;51.348;6.596;2023-01-10T02:04:50;6.68;;;1.45;;
28774;SDS011;15926;51.348;6.596;2023-01-10T02:07:18;13.20;;;2.33;;
28774;SDS011;15926;51.348;6.596;2023-01-10T02:09:47;10.02;;;1.35;;
28774;SDS011;15926;51.348;6.596;2023-01-10T02:14:41;4.15;;;1.40;;
28774;SDS011;15926;51.348;6.596;2023-01-10T02:17:09;5.70;;;1.52;;
28774;SDS011;15926;51.348;6.596;2023-01-10T02:27:27;10.00;;;1.83;;
28774;SDS011;15926;51.348;6.596;2023-01-10T02:30:05;11.63;;;1.98;;
28774;SDS011;15926;51.348;6.596;2023-01-10T02:32:42;7.97;;;2.00;;
28774;SDS011;15926;51.348;6.596;2023-01-10T02:37:59;9.30;;;2.00;;
28774;SDS011;15926;51.348;6.596;2023-01-10T02:40:45;8.55;;;1.90;;
28774;SDS011;15926;51.348;6.596;2023-01-10T02:43:19;7.22;;;2.05;;
28774;SDS011;15926;51.348;6.596;2023-01-10T02:45:51;5.68;;;1.77;;
28774;SDS011;15926;51.348;6.596;2023-01-10T02:48:20;8.60;;;1.67;;
28774;SDS011;15926;51.348;6.596;2023-01-10T02:51:31;5.85;;;1.92;;
28774;SDS011;15926;51.348;6.596;2023-01-10T02:53:33;8.90;;;2.45;;
28774;SDS011;15926;51.348;6.596;2023-01-10T02:58:31;9.15;;;1.88;;
28774;SDS011;15926;51.348;6.596;2023-01-10T03:01:52;7.68;;;1.85;;
28774;SDS011;15926;51.348;6.596;2023-01-10T03:03:56;11.52;;;2.13;;
28774;SDS011;15926;51.348;6.596;2023-01-10T03:06:34;8.10;;;1.85;;
28774;SDS011;15926;51.348;6.596;2023-01-10T03:09:15;8.60;;;2.85;;
28774;SDS011;15926;51.348;6.596;2023-01-10T03:11:45;7.53;;;2.22;;
28774;SDS011;15926;51.348;6.596;2023-01-10T03:14:23;6.10;;;1.58;;
28774;SDS011;15926;51.348;6.596;2023-01-10T03:16:52;10.50;;;2.10;;
28774;SDS011;15926;51.348;6.596;2023-01-10T03:19:20;10.40;;;2.20;;
28774;SDS011;15926;51.348;6.596;2023-01-10T03:21:48;7.32;;;1.55;;
28774;SDS011;15926;51.348;6.596;2023-01-10T03:24:17;9.93;;;2.08;;
28774;SDS011;15926;51.348;6.596;2023-01-10T03:26:46;6.95;;;2.00;;
28774;SDS011;15926;51.348;6.596;2023-01-10T03:29:15;10.38;;;1.70;;
28774;SDS011;15926;51.348;6.596;2023-01-10T03:31:44;4.70;;;1.33;;
28774;SDS011;15926;51.348;6.596;2023-01-10T03:34:13;5.78;;;1.73;;
28774;SDS011;15926;51.348;6.596;2023-01-10T03:36:40;10.05;;;2.30;;
28774;SDS011;15926;51.348;6.596;2023-01-10T03:39:29;10.77;;;1.85;;
28774;SDS011;15926;51.348;6.596;2023-01-10T03:49:36;8.13;;;1.50;;
28774;SDS011;15926;51.348;6.596;2023-01-10T03:52:03;6.28;;;1.50;;
28774;SDS011;15926;51.348;6.596;2023-01-10T03:54:30;11.10;;;2.35;;
28774;SDS011;15926;51.348;6.596;2023-01-10T03:56:56;7.65;;;1.88;;
28774;SDS011;15926;51.348;6.596;2023-01-10T03:59:23;7.20;;;1.45;;
28774;SDS011;15926;51.348;6.596;2023-01-10T04:01:50;8.50;;;1.75;;
28774;SDS011;15926;51.348;6.596;2023-01-10T04:04:16;13.73;;;1.80;;
28774;SDS011;15926;51.348;6.596;2023-01-10T04:06:42;4.47;;;1.90;;
28774;SDS011;15926;51.348;6.596;2023-01-10T04:09:09;10.30;;;2.20;;
28774;SDS011;15926;51.348;6.596;2023-01-10T04:11:35;9.60;;;1.77;;
28774;SDS011;15926;51.348;6.596;2023-01-10T04:14:01;8.57;;;2.40;;
28774;SDS011;15926;51.348;6.596;2023-01-10T04:16:27;8.57;;;1.80;;
28774;SDS011;15926;51.348;6.596;2023-01-10T04:18:53;5.72;;;1.45;;
28774;SDS011;15926;51.348;6.596;2023-01-10T04:21:19;8.23;;;1.75;;
28774;SDS011;15926;51.348;6.596;2023-01-10T04:23:45;6.55;;;1.50;;
28774;SDS011;15926;51.348;6.596;2023-01-10T04:26:11;12.02;;;1.65;;
28774;SDS011;15926;51.348;6.596;2023-01-10T04:28:37;6.63;;;1.30;;
28774;SDS011;15926;51.348;6.596;2023-01-10T04:31:03;12.75;;;1.83;;
28774;SDS011;15926;51.348;6.596;2023-01-10T04:33:29;13.98;;;1.67;;
28774;SDS011;15926;51.348;6.596;2023-01-10T04:35:56;11.88;;;2.17;;
28774;SDS011;15926;51.348;6.596;2023-01-10T04:38:22;9.13;;;1.50;;
28774;SDS011;15926;51.348;6.596;2023-01-10T04:40:52;11.55;;;1.52;;
28774;SDS011;15926;51.348;6.596;2023-01-10T04:43:18;6.25;;;1.67;;
28774;SDS011;15926;51.348;6.596;2023-01-10T04:45:44;14.18;;;1.50;;
28774;SDS011;15926;51.348;6.596;2023-01-10T04:48:10;12.65;;;2.00;;
28774;SDS011;15926;51.348;6.596;2023-01-10T04:50:36;13.35;;;2.00;;
28774;SDS011;15926;51.348;6.596;2023-01-10T04:53:02;9.15;;;1.88;;
28774;SDS011;15926;51.348;6.596;2023-01-10T04:55:28;8.50;;;1.85;;
28774;SDS011;15926;51.348;6.596;2023-01-10T04:57:54;13.07;;;2.45;;
28774;SDS011;15926;51.348;6.596;2023-01-10T05:00:20;9.85;;;1.45;;
28774;SDS011;15926;51.348;6.596;2023-01-10T05:02:46;7.57;;;1.55;;
28774;SDS011;15926;51.348;6.596;2023-01-10T05:05:12;10.27;;;1.50;;
28774;SDS011;15926;51.348;6.596;2023-01-10T05:07:39;6.63;;;1.40;;
28774;SDS011;15926;51.348;6.596;2023-01-10T05:10:05;3.80;;;1.90;;
28774;SDS011;15926;51.348;6.596;2023-01-10T05:12:32;9.25;;;2.03;;
28774;SDS011;15926;51.348;6.596;2023-01-10T05:14:58;8.13;;;1.92;;
28774;SDS011;15926;51.348;6.596;2023-01-10T05:17:24;8.18;;;1.63;;
28774;SDS011;15926;51.348;6.596;2023-01-10T05:19:50;7.75;;;1.63;;
28774;SDS011;15926;51.348;6.596;2023-01-10T05:22:16;12.82;;;1.92;;
28774;SDS011;15926;51.348;6.596;2023-01-10T05:24:42;11.00;;;1.73;;
28774;SDS011;15926;51.348;6.596;2023-01-10T05:27:08;11.10;;;2.03;;
28774;SDS011;15926;51.348;6.596;2023-01-10T05:29:34;7.30;;;1.88;;
28774;SDS011;15926;51.348;6.596;2023-01-10T05:32:00;12.18;;;1.60;;
28774;SDS011;15926;51.348;6.596;2023-01-10T05:34:26;9.07;;;1.95;;
28774;SDS011;15926;51.348;6.596;2023-01-10T05:36:52;6.43;;;1.48;;
28774;SDS011;15926;51.348;6.596;2023-01-10T05:39:17;15.15;;;2.25;;
28774;SDS011;15926;51.348;6.596;2023-01-10T05:41:45;9.90;;;2.05;;
28774;SDS011;15926;51.348;6.596;2023-01-10T05:44:11;13.23;;;2.20;;
28774;SDS011;15926;51.348;6.596;2023-01-10T05:46:37;14.90;;;2.10;;
28774;SDS011;15926;51.348;6.596;2023-01-10T05:49:03;14.63;;;3.88;;
28774;SDS011;15926;51.348;6.596;2023-01-10T05:51:29;9.55;;;1.90;;
28774;SDS011;15926;51.348;6.596;2023-01-10T05:53:55;10.77;;;2.25;;
28774;SDS011;15926;51.348;6.596;2023-01-10T05:56:22;12.80;;;1.90;;
28774;SDS011;15926;51.348;6.596;2023-01-10T05:58:48;11.95;;;2.70;;
28774;SDS011;15926;51.348;6.596;2023-01-10T06:01:14;14.40;;;2.95;;
28774;SDS011;15926;51.348;6.596;2023-01-10T06:03:40;13.48;;;1.83;;
28774;SDS011;15926;51.348;6.596;2023-01-10T06:06:06;12.18;;;2.10;;
28774;SDS011;15926;51.348;6.596;2023-01-10T06:08:33;14.48;;;2.63;;
28774;SDS011;15926;51.348;6.596;2023-01-10T06:11:01;15.27;;;2.05;;
28774;SDS011;15926;51.348;6.596;2023-01-10T06:13:27;7.88;;;1.80;;
28774;SDS011;15926;51.348;6.596;2023-01-10T06:15:53;8.07;;;1.60;;
28774;SDS011;15926;51.348;6.596;2023-01-10T06:18:19;14.93;;;2.35;;
28774;SDS011;15926;51.348;6.596;2023-01-10T06:20:45;11.85;;;1.92;;
28774;SDS011;15926;51.348;6.596;2023-01-10T06:23:11;13.63;;;2.08;;
28774;SDS011;15926;51.348;6.596;2023-01-10T06:25:37;17.75;;;2.47;;
28774;SDS011;15926;51.348;6.596;2023-01-10T06:28:06;22.60;;;3.00;;
28774;SDS011;15926;51.348;6.596;2023-01-10T06:30:32;18.23;;;2.78;;
28774;SDS011;15926;51.348;6.596;2023-01-10T06:32:59;8.82;;;1.80;;
28774;SDS011;15926;51.348;6.596;2023-01-10T06:35:26;17.00;;;2.67;;
28774;SDS011;15926;51.348;6.596;2023-01-10T06:37:52;12.00;;;1.83;;
28774;SDS011;15926;51.348;6.596;2023-01-10T06:40:18;17.40;;;2.35;;
28774;SDS011;15926;51.348;6.596;2023-01-10T06:42:44;12.90;;;2.30;;
28774;SDS011;15926;51.348;6.596;2023-01-10T06:45:10;16.17;;;3.05;;
28774;SDS011;15926;51.348;6.596;2023-01-10T06:47:36;18.35;;;2.83;;
28774;SDS011;15926;51.348;6.596;2023-01-10T06:50:03;11.13;;;3.35;;
28774;SDS011;15926;51.348;6.596;2023-01-10T06:52:29;8.30;;;1.80;;
28774;SDS011;15926;51.348;6.596;2023-01-10T06:54:55;17.35;;;2.28;;
28774;SDS011;15926;51.348;6.596;2023-01-10T06:57:21;17.25;;;2.17;;
28774;SDS011;15926;51.348;6.596;2023-01-10T06:59:47;14.15;;;2.50;;
28774;SDS011;15926;51.348;6.596;2023-01-10T07:02:13;14.77;;;2.05;;
28774;SDS011;15926;51.348;6.596;2023-01-10T07:04:39;8.57;;;1.65;;
28774;SDS011;15926;51.348;6.596;2023-01-10T07:07:06;21.05;;;2.80;;
28774;SDS011;15926;51.348;6.596;2023-01-10T07:09:31;17.27;;;2.10;;
28774;SDS011;15926;51.348;6.596;2023-01-10T07:11:57;10.10;;;2.15;;
28774;SDS011;15926;51.348;6.596;2023-01-10T07:14:24;14.25;;;2.42;;
28774;SDS011;15926;51.348;6.596;2023-01-10T07:16:50;20.10;;;2.33;;
28774;SDS011;15926;51.348;6.596;2023-01-10T07:19:16;13.70;;;2.47;;
28774;SDS011;15926;51.348;6.596;2023-01-10T07:21:43;13.55;;;2.10;;
28774;SDS011;15926;51.348;6.596;2023-01-10T07:24:09;17.92;;;2.05;;
28774;SDS011;15926;51.348;6.596;2023-01-10T07:26:35;21.30;;;3.05;;
28774;SDS011;15926;51.348;6.596;2023-01-10T07:29:01;14.43;;;1.92;;
28774;SDS011;15926;51.348;6.596;2023-01-10T07:31:27;13.55;;;2.05;;
28774;SDS011;15926;51.348;6.596;2023-01-10T07:33:53;11.38;;;2.22;;
28774;SDS011;15926;51.348;6.596;2023-01-10T07:36:20;15.43;;;2.35;;
28774;SDS011;15926;51.348;6.596;2023-01-10T07:38:46;11.98;;;2.42;;
28774;SDS011;15926;51.348;6.596;2023-01-10T07:41:12;7.30;;;2.17;;
28774;SDS011;15926;51.348;6.596;2023-01-10T07:43:38;17.10;;;2.72;;
28774;SDS011;15926;51.348;6.596;2023-01-10T07:46:04;15.63;;;2.75;;
28774;SDS011;15926;51.348;6.596;2023-01-10T07:48:36;10.23;;;3.10;;
28774;SDS011;15926;51.348;6.596;2023-01-10T07:51:02;14.25;;;3.05;;
28774;SDS011;15926;51.348;6.596;2023-01-10T07:53:29;26.85;;;3.50;;
28774;SDS011;15926;51.348;6.596;2023-01-10T07:56:02;14.40;;;2.17;;
28774;SDS011;15926;51.348;6.596;2023-01-10T07:58:28;15.35;;;2.38;;
28774;SDS011;15926;51.348;6.596;2023-01-10T08:00:57;14.18;;;2.85;;
28774;SDS011;15926;51.348;6.596;2023-01-10T08:03:24;17.13;;;2.50;;
28774;SDS011;15926;51.348;6.596;2023-01-10T08:05:56;15.93;;;2.80;;
28774;SDS011;15926;51.348;6.596;2023-01-10T08:08:23;21.05;;;3.42;;
28774;SDS011;15926;51.348;6.596;2023-01-10T08:10:48;17.70;;;2.65;;
28774;SDS011;15926;51.348;6.596;2023-01-10T08:13:14;21.30;;;2.90;;
28774;SDS011;15926;51.348;6.596;2023-01-10T08:15:40;17.13;;;3.45;;
28774;SDS011;15926;51.348;6.596;2023-01-10T08:18:06;19.85;;;2.30;;
28774;SDS011;15926;51.348;6.596;2023-01-10T08:20:32;32.42;;;9.10;;
28774;SDS011;15926;51.348;6.596;2023-01-10T08:22:58;30.23;;;7.13;;
28774;SDS011;15926;51.348;6.596;2023-01-10T08:25:25;25.27;;;6.80;;
28774;SDS011;15926;51.348;6.596;2023-01-10T08:27:51;20.98;;;3.53;;
28774;SDS011;15926;51.348;6.596;2023-01-10T08:30:17;13.82;;;3.08;;
28774;SDS011;15926;51.348;6.596;2023-01-10T08:32:43;19.05;;;3.72;;
28774;SDS011;15926;51.348;6.596;2023-01-10T08:35:09;18.20;;;3.55;;
28774;SDS011;15926;51.348;6.596;2023-01-10T08:37:35;16.45;;;4.00;;
28774;SDS011;15926;51.348;6.596;2023-01-10T08:40:02;24.20;;;3.08;;
28774;SDS011;15926;51.348;6.596;2023-01-10T08:42:28;16.73;;;2.42;;
28774;SDS011;15926;51.348;6.596;2023-01-10T08:44:54;14.85;;;3.13;;
28774;SDS011;15926;51.348;6.596;2023-01-10T08:47:20;17.40;;;3.72;;
28774;SDS011;15926;51.348;6.596;2023-01-10T08:49:46;17.23;;;4.60;;
28774;SDS011;15926;51.348;6.596;2023-01-10T08:52:13;20.88;;;3.55;;
28774;SDS011;15926;51.348;6.596;2023-01-10T08:54:40;17.42;;;3.58;;
28774;SDS011;15926;51.348;6.596;2023-01-10T08:57:06;18.52;;;4.00;;
28774;SDS011;15926;51.348;6.596;2023-01-10T08:59:32;14.98;;;3.22;;
28774;SDS011;15926;51.348;6.596;2023-01-10T09:01:57;14.32;;;2.60;;
28774;SDS011;15926;51.348;6.596;2023-01-10T09:04:24;17.42;;;3.28;;
28774;SDS011;15926;51.348;6.596;2023-01-10T09:06:52;15.02;;;2.80;;
28774;SDS011;15926;51.348;6.596;2023-01-10T09:09:18;19.60;;;2.42;;
28774;SDS011;15926;51.348;6.596;2023-01-10T09:11:44;15.90;;;2.45;;
28774;SDS011;15926;51.348;6.596;2023-01-10T09:14:10;17.17;;;2.92;;
28774;SDS011;15926;51.348;6.596;2023-01-10T09:16:36;10.68;;;2.60;;
28774;SDS011;15926;51.348;6.596;2023-01-10T09:19:02;11.65;;;2.65;;
28774;SDS011;15926;51.348;6.596;2023-01-10T09:21:28;19.00;;;2.78;;
28774;SDS011;15926;51.348;6.596;2023-01-10T09:23:54;9.57;;;2.00;;
28774;SDS011;15926;51.348;6.596;2023-01-10T09:26:20;18.70;;;2.63;;
28774;SDS011;15926;51.348;6.596;2023-01-10T09:28:46;14.70;;;2.72;;
28774;SDS011;15926;51.348;6.596;2023-01-10T09:31:13;12.93;;;2.33;;
28774;SDS011;15926;51.348;6.596;2023-01-10T09:33:39;16.33;;;2.20;;
28774;SDS011;15926;51.348;6.596;2023-01-10T09:36:06;14.35;;;2.53;;
28774;SDS011;15926;51.348;6.596;2023-01-10T09:38:33;14.60;;;2.45;;
28774;SDS011;15926;51.348;6.596;2023-01-10T09:41:03;14.10;;;3.05;;
28774;SDS011;15926;51.348;6.596;2023-01-10T09:46:02;10.85;;;2.28;;
28774;SDS011;15926;51.348;6.596;2023-01-10T09:48:36;17.02;;;2.42;;
28774;SDS011;15926;51.348;6.596;2023-01-10T09:54:38;13.40;;;2.75;;
28774;SDS011;15926;51.348;6.596;2023-01-10T09:56:57;9.93;;;2.45;;
28774;SDS011;15926;51.348;6.596;2023-01-10T09:59:25;16.27;;;2.42;;
28774;SDS011;15926;51.348;6.596;2023-01-10T10:01:52;19.90;;;2.50;;
28774;SDS011;15926;51.348;6.596;2023-01-10T10:04:28;15.05;;;2.38;;
28774;SDS011;15926;51.348;6.596;2023-01-10T10:06:55;12.48;;;2.42;;
28774;SDS011;15926;51.348;6.596;2023-01-10T10:09:22;12.43;;;2.28;;
28774;SDS011;15926;51.348;6.596;2023-01-10T10:11:56;7.85;;;2.47;;
28774;SDS011;15926;51.348;6.596;2023-01-10T10:19:51;13.73;;;2.58;;
28774;SDS011;15926;51.348;6.596;2023-01-10T10:25:13;17.30;;;2.17;;
28774;SDS011;15926;51.348;6.596;2023-01-10T10:33:02;11.43;;;2.03;;
28774;SDS011;15926;51.348;6.596;2023-01-10T10:35:34;13.65;;;2.13;;
28774;SDS011;15926;51.348;6.596;2023-01-10T10:38:09;17.55;;;2.97;;
28774;SDS011;15926;51.348;6.596;2023-01-10T10:40:36;11.07;;;2.58;;
28774;SDS011;15926;51.348;6.596;2023-01-10T10:43:14;11.30;;;2.05;;
28774;SDS011;15926;51.348;6.596;2023-01-10T10:45:45;10.63;;;2.50;;
28774;SDS011;15926;51.348;6.596;2023-01-10T10:48:13;17.60;;;2.83;;
28774;SDS011;15926;51.348;6.596;2023-01-10T10:53:25;10.55;;;1.88;;
28774;SDS011;15926;51.348;6.596;2023-01-10T10:55:51;14.00;;;2.40;;
28774;SDS011;15926;51.348;6.596;2023-01-10T10:58:17;9.20;;;2.40;;
28774;SDS011;15926;51.348;6.596;2023-01-10T11:00:43;9.75;;;1.92;;
28774;SDS011;15926;51.348;6.596;2023-01-10T11:05:40;17.77;;;2.42;;
28774;SDS011;15926;51.348;6.596;2023-01-10T11:08:08;15.77;;;1.90;;
28774;SDS011;15926;51.348;6.596;2023-01-10T11:10:37;12.75;;;2.30;;
28774;SDS011;15926;51.348;6.596;2023-01-10T11:13:15;9.00;;;2.35;;
28774;SDS011;15926;51.348;6.596;2023-01-10T11:15:43;10.02;;;2.20;;
28774;SDS011;15926;51.348;6.596;2023-01-10T11:18:17;14.57;;;2.40;;
28774;SDS011;15926;51.348;6.596;2023-01-10T11:20:57;20.83;;;2.78;;
28774;SDS011;15926;51.348;6.596;2023-01-10T11:23:39;13.65;;;2.47;;
28774;SDS011;15926;51.348;6.596;2023-01-10T11:26:07;12.77;;;2.33;;
28774;SDS011;15926;51.348;6.596;2023-01-10T11:28:34;10.40;;;2.75;;
28774;SDS011;15926;51.348;6.596;2023-01-10T11:31:01;16.23;;;2.28;;
28774;SDS011;15926;51.348;6.596;2023-01-10T11:33:32;11.35;;;2.33;;
28774;SDS011;15926;51.348;6.596;2023-01-10T11:36:04;14.02;;;2.40;;
28774;SDS011;15926;51.348;6.596;2023-01-10T11:38:31;16.75;;;2.95;;
28774;SDS011;15926;51.348;6.596;2023-01-10T11:41:05;14.27;;;2.20;;
28774;SDS011;15926;51.348;6.596;2023-01-10T11:43:35;9.32;;;2.08;;
28774;SDS011;15926;51.348;6.596;2023-01-10T11:46:02;11.32;;;2.05;;
28774;SDS011;15926;51.348;6.596;2023-01-10T11:51:21;13.67;;;2.63;;
28774;SDS011;15926;51.348;6.596;2023-01-10T11:53:48;17.20;;;2.15;;
28774;SDS011;15926;51.348;6.596;2023-01-10T11:56:21;13.00;;;2.47;;
28774;SDS011;15926;51.348;6.596;2023-01-10T11:58:48;13.18;;;2.35;;
28774;SDS011;15926;51.348;6.596;2023-01-10T12:01:24;11.25;;;2.40;;
28774;SDS011;15926;51.348;6.596;2023-01-10T12:03:51;10.77;;;2.55;;
28774;SDS011;15926;51.348;6.596;2023-01-10T12:06:17;12.68;;;2.45;;
28774;SDS011;15926;51.348;6.596;2023-01-10T12:08:44;11.45;;;1.92;;
28774;SDS011;15926;51.348;6.596;2023-01-10T12:13:49;6.60;;;1.92;;
28774;SDS011;15926;51.348;6.596;2023-01-10T12:16:17;9.98;;;2.20;;
28774;SDS011;15926;51.348;6.596;2023-01-10T12:18:44;8.80;;;1.67;;
28774;SDS011;15926;51.348;6.596;2023-01-10T12:21:10;14.85;;;2.00;;
28774;SDS011;15926;51.348;6.596;2023-01-10T12:23:37;9.13;;;2.08;;
28774;SDS011;15926;51.348;6.596;2023-01-10T12:26:06;10.40;;;2.47;;
28774;SDS011;15926;51.348;6.596;2023-01-10T12:28:32;13.43;;;2.22;;
28774;SDS011;15926;51.348;6.596;2023-01-10T12:31:00;13.45;;;2.08;;
28774;SDS011;15926;51.348;6.596;2023-01-10T12:33:32;8.90;;;1.42;;
28774;SDS011;15926;51.348;6.596;2023-01-10T12:36:02;9.13;;;1.50;;
28774;SDS011;15926;51.348;6.596;2023-01-10T12:38:35;12.50;;;2.30;;
28774;SDS011;15926;51.348;6.596;2023-01-10T12:41:38;20.40;;;3.08;;
28774;SDS011;15926;51.348;6.596;2023-01-10T12:46:58;6.85;;;1.50;;
28774;SDS011;15926;51.348;6.596;2023-01-10T12:49:26;9.65;;;1.83;;
28774;SDS011;15926;51.348;6.596;2023-01-10T12:51:53;12.73;;;1.88;;
28774;SDS011;15926;51.348;6.596;2023-01-10T12:54:23;12.77;;;1.73;;
28774;SDS011;15926;51.348;6.596;2023-01-10T12:56:52;13.93;;;1.70;;
28774;SDS011;15926;51.348;6.596;2023-01-10T12:59:23;10.23;;;1.55;;
28774;SDS011;15926;51.348;6.596;2023-01-10T13:01:54;13.13;;;1.60;;
28774;SDS011;15926;51.348;6.596;2023-01-10T13:04:25;5.45;;;1.42;;
28774;SDS011;15926;51.348;6.596;2023-01-10T13:06:51;13.07;;;2.58;;
28774;SDS011;15926;51.348;6.596;2023-01-10T13:09:19;8.65;;;1.90;;
28774;SDS011;15926;51.348;6.596;2023-01-10T13:12:02;10.10;;;1.60;;
28774;SDS011;15926;51.348;6.596;2023-01-10T13:22:39;12.95;;;1.90;;
28774;SDS011;15926;51.348;6.596;2023-01-10T13:25:05;15.40;;;2.88;;
28774;SDS011;15926;51.348;6.596;2023-01-10T13:27:43;8.55;;;1.63;;
28774;SDS011;15926;51.348;6.596;2023-01-10T13:30:23;12.02;;;1.48;;
28774;SDS011;15926;51.348;6.596;2023-01-10T13:32:54;16.27;;;1.60;;
28774;SDS011;15926;51.348;6.596;2023-01-10T13:35:22;11.50;;;1.65;;
28774;SDS011;15926;51.348;6.596;2023-01-10T13:37:50;4.28;;;1.38;;
28774;SDS011;15926;51.348;6.596;2023-01-10T13:40:25;8.00;;;1.53;;
28774;SDS011;15926;51.348;6.596;2023-01-10T13:45:45;8.60;;;1.25;;
28774;SDS011;15926;51.348;6.596;2023-01-10T13:48:25;9.07;;;1.95;;
28774;SDS011;15926;51.348;6.596;2023-01-10T13:50:56;5.60;;;1.25;;
28774;SDS011;15926;51.348;6.596;2023-01-10T13:55:57;16.70;;;1.63;;
28774;SDS011;15926;51.348;6.596;2023-01-10T14:01:24;10.68;;;1.58;;
28774;SDS011;15926;51.348;6.596;2023-01-10T14:06:53;6.57;;;1.50;;
28774;SDS011;15926;51.348;6.596;2023-01-10T14:11:50;11.02;;;1.55;;
28774;SDS011;15926;51.348;6.596;2023-01-10T14:16:47;6.63;;;1.25;;
28774;SDS011;15926;51.348;6.596;2023-01-10T14:19:27;6.05;;;1.90;;
28774;SDS011;15926;51.348;6.596;2023-01-10T14:21:54;7.85;;;1.30;;
28774;SDS011;15926;51.348;6.596;2023-01-10T14:26:49;8.30;;;1.40;;
28774;SDS011;15926;51.348;6.596;2023-01-10T14:29:16;4.25;;;1.33;;
28774;SDS011;15926;51.348;6.596;2023-01-10T14:31:44;12.57;;;1.73;;
28774;SDS011;15926;51.348;6.596;2023-01-10T14:34:18;15.10;;;2.03;;
28774;SDS011;15926;51.348;6.596;2023-01-10T14:36:48;6.82;;;1.50;;
28774;SDS011;15926;51.348;6.596;2023-01-10T14:41:41;12.38;;;1.92;;
28774;SDS011;15926;51.348;6.596;2023-01-10T14:51:45;8.18;;;1.52;;
28774;SDS011;15926;51.348;6.596;2023-01-10T14:54:15;6.05;;;1.42;;
28774;SDS011;15926;51.348;6.596;2023-01-10T15:01:59;7.70;;;1.20;;
28774;SDS011;15926;51.348;6.596;2023-01-10T15:04:27;6.75;;;1.90;;
28774;SDS011;15926;51.348;6.596;2023-01-10T15:06:57;8.15;;;1.80;;
28774;SDS011;15926;51.348;6.596;2023-01-10T15:09:27;7.50;;;1.88;;
28774;SDS011;15926;51.348;6.596;2023-01-10T15:11:53;10.65;;;1.75;;
28774;SDS011;15926;51.348;6.596;2023-01-10T15:14:20;9.55;;;1.60;;
28774;SDS011;15926;51.348;6.596;2023-01-10T15:16:50;12.77;;;1.73;;
28774;SDS011;15926;51.348;6.596;2023-01-10T15:19:18;9.70;;;1.52;;
28774;SDS011;15926;51.348;6.596;2023-01-10T15:21:44;7.18;;;1.77;;
28774;SDS011;15926;51.348;6.596;2023-01-10T15:26:57;9.18;;;2.00;;
28774;SDS011;15926;51.348;6.596;2023-01-10T15:29:23;7.63;;;1.38;;
28774;SDS011;15926;51.348;6.596;2023-01-10T15:31:50;5.53;;;1.45;;
28774;SDS011;15926;51.348;6.596;2023-01-10T15:34:17;9.38;;;1.33;;
28774;SDS011;15926;51.348;6.596;2023-01-10T15:36:45;8.55;;;1.55;;
28774;SDS011;15926;51.348;6.596;2023-01-10T15:39:17;8.48;;;1.50;;
28774;SDS011;15926;51.348;6.596;2023-01-10T15:41:44;10.32;;;2.10;;
28774;SDS011;15926;51.348;6.596;2023-01-10T15:44:23;9.50;;;2.00;;
28774;SDS011;15926;51.348;6.596;2023-01-10T15:46:57;9.98;;;1.38;;
28774;SDS011;15926;51.348;6.596;2023-01-10T15:49:23;8.88;;;1.40;;
28774;SDS011;15926;51.348;6.596;2023-01-10T15:51:49;10.75;;;2.00;;
28774;SDS011;15926;51.348;6.596;2023-01-10T15:59:38;9.52;;;1.92;;
28774;SDS011;15926;51.348;6.596;2023-01-10T16:04:37;12.43;;;1.63;;
28774;SDS011;15926;51.348;6.596;2023-01-10T16:07:05;14.02;;;3.10;;
28774;SDS011;15926;51.348;6.596;2023-01-10T16:09:31;12.10;;;2.50;;
28774;SDS011;15926;51.348;6.596;2023-01-10T16:11:58;9.32;;;2.28;;
28774;SDS011;15926;51.348;6.596;2023-01-10T16:14:42;10.70;;;2.03;;
28774;SDS011;15926;51.348;6.596;2023-01-10T16:17:08;13.38;;;2.40;;
28774;SDS011;15926;51.348;6.596;2023-01-10T16:19:36;9.07;;;1.92;;
28774;SDS011;15926;51.348;6.596;2023-01-10T16:22:02;12.60;;;2.38;;
28774;SDS011;15926;51.348;6.596;2023-01-10T16:24:29;9.55;;;1.83;;
28774;SDS011;15926;51.348;6.596;2023-01-10T16:26:56;7.50;;;2.08;;
28774;SDS011;15926;51.348;6.596;2023-01-10T16:29:24;13.20;;;1.60;;
28774;SDS011;15926;51.348;6.596;2023-01-10T16:31:51;9.48;;;1.98;;
28774;SDS011;15926;51.348;6.596;2023-01-10T16:34:17;12.60;;;1.90;;
28774;SDS011;15926;51.348;6.596;2023-01-10T16:36:43;14.10;;;2.83;;
28774;SDS011;15926;51.348;6.596;2023-01-10T16:39:19;12.57;;;2.15;;
28774;SDS011;15926;51.348;6.596;2023-01-10T16:41:45;8.65;;;1.73;;